Time;durP1;ratioP1;P1;durP2;ratioP2;P2;SDS_P1;SDS_P2;PMS_P1;PMS_P2;Temp;Humidity;BMP_temperature;BMP_pressure;BME280_temperature;BME280_humidity;BME280_pressure;Samples;Min_cycle;Max_cycle;Signal;HPM_P1;HPM_P2
2023/07/09 00:02:24;;;;;;;9.20;8.27;;;26.10;55.20;;;;;;4951035;28;20062;-50
2023/07/09 00:04:52;;;;;;;9.95;7.82;;;26.10;54.90;;;;;;4940576;28;20099;-47
2023/07/09 00:07:31;;;;;;;9.77;8.05;;;26.00;54.90;;;;;;4941268;28;20812;-49
2023/07/09 00:09:59;;;;;;;9.85;7.13;;;26.00;55.20;;;;;;4940343;28;20044;-50
2023/07/09 00:12:27;;;;;;;8.23;7.30;;;26.00;55.10;;;;;;4953942;28;20051;-46
2023/07/09 00:14:58;;;;;;;8.60;7.20;;;25.90;55.10;;;;;;4955272;28;20066;-47
2023/07/09 00:17:31;;;;;;;9.15;7.68;;;26.00;55.50;;;;;;4950238;28;20460;-46
2023/07/09 00:20:13;;;;;;;8.00;7.20;;;25.90;55.50;;;;;;4947727;28;20114;-47
2023/07/09 00:22:47;;;;;;;8.50;7.70;;;25.80;55.10;;;;;;4951941;28;20753;-51
2023/07/09 00:25:23;;;;;;;9.27;7.80;;;25.80;55.10;;;;;;4939986;28;20547;-48
2023/07/09 00:27:50;;;;;;;8.98;7.35;;;25.80;55.10;;;;;;4955076;28;20556;-46
2023/07/09 00:30:27;;;;;;;7.50;6.70;;;25.70;55.00;;;;;;4951378;28;20186;-48
2023/07/09 00:32:54;;;;;;;7.72;6.70;;;25.70;55.40;;;;;;4932621;29;20035;-48
2023/07/09 00:35:23;;;;;;;8.25;7.43;;;25.60;55.10;;;;;;4953675;28;20063;-47
2023/07/09 00:37:52;;;;;;;7.50;6.47;;;25.60;55.40;;;;;;4955125;28;20090;-46
2023/07/09 00:40:26;;;;;;;7.95;6.95;;;25.50;55.20;;;;;;4947430;28;20047;-49
2023/07/09 00:42:55;;;;;;;9.10;6.80;;;25.50;55.40;;;;;;4948167;28;20067;-50
2023/07/09 00:45:26;;;;;;;9.57;6.63;;;25.40;55.50;;;;;;4937291;28;20058;-49
2023/07/09 00:48:06;;;;;;;7.07;6.20;;;25.40;55.60;;;;;;4937760;29;20047;-48
2023/07/09 00:50:45;;;;;;;9.02;6.43;;;25.40;56.00;;;;;;4928063;28;20059;-47
2023/07/09 00:53:26;;;;;;;7.57;6.80;;;25.30;55.80;;;;;;4929340;28;20062;-47
2023/07/09 00:56:06;;;;;;;8.13;6.70;;;25.30;55.90;;;;;;4938469;28;20048;-47
2023/07/09 00:58:36;;;;;;;8.20;6.30;;;25.20;55.70;;;;;;4946687;28;20066;-50
2023/07/09 01:01:11;;;;;;;7.18;6.20;;;25.20;55.70;;;;;;4936118;29;20733;-46
2023/07/09 01:03:58;;;;;;;7.00;6.30;;;25.20;56.00;;;;;;4953930;28;20032;-46
2023/07/09 01:06:36;;;;;;;7.20;5.75;;;25.10;55.70;;;;;;4935344;28;20052;-48
2023/07/09 01:09:07;;;;;;;9.05;7.03;;;25.10;56.00;;;;;;4936165;28;20055;-48
2023/07/09 01:11:38;;;;;;;8.32;6.63;;;25.00;55.70;;;;;;4941509;28;20118;-47
2023/07/09 01:14:07;;;;;;;7.90;6.10;;;25.00;55.90;;;;;;4952417;28;20051;-47
2023/07/09 01:16:49;;;;;;;7.70;6.03;;;24.90;56.00;;;;;;4937042;29;20420;-47
2023/07/09 01:19:23;;;;;;;7.10;6.25;;;24.90;56.10;;;;;;4932433;28;20043;-48
2023/07/09 01:21:54;;;;;;;7.93;6.32;;;24.90;56.30;;;;;;4923603;29;20051;-46
2023/07/09 01:24:49;;;;;;;7.53;6.63;;;24.80;56.30;;;;;;4927765;28;20042;-48
2023/07/09 01:27:20;;;;;;;7.82;6.53;;;24.80;56.50;;;;;;4954351;28;20043;-47
2023/07/09 01:29:48;;;;;;;6.70;6.10;;;24.70;56.20;;;;;;4935904;28;20134;-48
2023/07/09 01:32:22;;;;;;;7.47;6.38;;;24.70;56.20;;;;;;4947435;28;20094;-49
2023/07/09 01:34:52;;;;;;;7.82;6.60;;;24.70;56.70;;;;;;4940687;28;20102;-51
2023/07/09 01:37:24;;;;;;;7.65;6.22;;;24.60;56.50;;;;;;4954374;28;20487;-45
2023/07/09 01:39:53;;;;;;;8.32;5.78;;;24.60;56.60;;;;;;4953004;28;20043;-49
2023/07/09 01:42:24;;;;;;;7.07;6.38;;;24.50;56.50;;;;;;4941414;28;20548;-47
2023/07/09 01:44:55;;;;;;;6.57;5.88;;;24.50;56.60;;;;;;4947546;28;20046;-50
2023/07/09 01:47:27;;;;;;;6.47;5.88;;;24.50;56.70;;;;;;4953921;28;20058;-47
2023/07/09 01:49:57;;;;;;;7.85;6.22;;;24.40;56.80;;;;;;4945837;28;20054;-51
2023/07/09 01:52:33;;;;;;;7.18;6.00;;;24.40;56.60;;;;;;4942590;28;20071;-49
2023/07/09 01:55:05;;;;;;;6.28;5.68;;;24.40;56.80;;;;;;4919905;29;20044;-49
2023/07/09 01:57:45;;;;;;;7.18;6.25;;;24.30;56.80;;;;;;4928627;29;20051;-46
2023/07/09 02:00:16;;;;;;;6.88;6.18;;;24.30;57.10;;;;;;4935682;28;20051;-50
2023/07/09 02:02:47;;;;;;;6.85;5.38;;;24.30;57.00;;;;;;4930378;29;20080;-45
2023/07/09 02:05:18;;;;;;;8.77;6.22;;;24.20;56.90;;;;;;4926036;28;20468;-49
2023/07/09 02:07:48;;;;;;;8.20;5.63;;;24.20;57.00;;;;;;4936437;29;20682;-47
2023/07/09 02:10:18;;;;;;;6.93;5.85;;;24.20;57.20;;;;;;4932332;28;20134;-47
2023/07/09 02:12:46;;;;;;;7.97;5.93;;;24.20;57.20;;;;;;4927915;29;20071;-48
2023/07/09 02:15:13;;;;;;;7.50;5.85;;;24.10;57.20;;;;;;4935185;28;20428;-51
2023/07/09 02:17:44;;;;;;;8.13;6.18;;;24.20;58.00;;;;;;4935793;29;20039;-48
2023/07/09 02:20:12;;;;;;;6.72;6.13;;;24.00;57.40;;;;;;4933609;28;20089;-47
2023/07/09 02:22:42;;;;;;;7.03;5.70;;;24.00;57.50;;;;;;4939911;28;20523;-47
2023/07/09 02:25:09;;;;;;;7.03;5.75;;;24.00;57.70;;;;;;4925488;28;20071;-46
2023/07/09 02:27:37;;;;;;;6.53;5.80;;;24.00;57.90;;;;;;4936106;29;20451;-46
2023/07/09 02:30:07;;;;;;;6.82;5.63;;;24.00;58.10;;;;;;4952427;28;20035;-48
2023/07/09 02:32:41;;;;;;;7.10;5.82;;;23.90;58.20;;;;;;4930043;29;20086;-48
2023/07/09 02:35:10;;;;;;;7.32;5.80;;;23.90;58.40;;;;;;4943888;28;20468;-46
2023/07/09 02:37:42;;;;;;;6.95;6.03;;;23.90;58.30;;;;;;4935742;29;20043;-50
2023/07/09 02:40:14;;;;;;;8.65;6.07;;;23.90;58.10;;;;;;4934181;28;20039;-49
2023/07/09 02:42:41;;;;;;;7.10;5.90;;;23.90;58.10;;;;;;4938952;28;20508;-45
2023/07/09 02:45:12;;;;;;;6.63;5.90;;;23.90;58.20;;;;;;4934924;28;20540;-51
2023/07/09 02:47:38;;;;;;;6.28;5.32;;;23.90;58.10;;;;;;4948911;28;20036;-47
2023/07/09 02:50:08;;;;;;;6.18;5.57;;;23.90;58.10;;;;;;4926222;29;20091;-47
2023/07/09 02:52:35;;;;;;;8.50;6.10;;;23.80;58.00;;;;;;4949721;28;20493;-47
2023/07/09 02:55:01;;;;;;;8.02;6.47;;;23.90;58.10;;;;;;4922282;29;20047;-50
2023/07/09 02:57:29;;;;;;;6.72;5.90;;;23.80;58.10;;;;;;4951731;28;20035;-46
2023/07/09 02:59:58;;;;;;;8.13;6.20;;;23.80;58.20;;;;;;4951363;28;20123;-46
2023/07/09 03:02:26;;;;;;;7.32;5.57;;;23.80;58.30;;;;;;4933229;28;20052;-46
2023/07/09 03:04:55;;;;;;;8.15;5.15;;;23.70;58.10;;;;;;4929706;29;20503;-50
2023/07/09 03:07:25;;;;;;;8.70;5.70;;;23.70;58.10;;;;;;4935725;28;20508;-50
2023/07/09 03:09:54;;;;;;;6.72;6.10;;;23.70;58.40;;;;;;4933409;29;20134;-46
2023/07/09 03:12:23;;;;;;;7.85;5.78;;;23.70;58.40;;;;;;4928709;28;20055;-47
2023/07/09 03:14:50;;;;;;;7.05;6.00;;;23.60;58.20;;;;;;4934438;29;20050;-46
2023/07/09 03:17:17;;;;;;;8.45;6.20;;;23.70;58.40;;;;;;4935005;28;20039;-46
2023/07/09 03:19:43;;;;;;;7.25;5.80;;;23.60;58.50;;;;;;4931606;29;20358;-47
2023/07/09 03:22:10;;;;;;;7.82;5.65;;;23.60;58.50;;;;;;4933834;29;20048;-50
2023/07/09 03:24:37;;;;;;;7.93;6.13;;;23.60;58.70;;;;;;4930437;29;20051;-46
2023/07/09 03:27:09;;;;;;;8.45;6.00;;;23.60;59.50;;;;;;4937615;28;20400;-45
2023/07/09 03:29:36;;;;;;;7.45;5.63;;;23.60;59.30;;;;;;4932276;29;20099;-48
2023/07/09 03:32:03;;;;;;;6.45;5.72;;;23.50;59.00;;;;;;4923509;29;20040;-49
2023/07/09 03:34:29;;;;;;;6.53;5.40;;;23.50;58.90;;;;;;4931889;29;20126;-47
2023/07/09 03:36:56;;;;;;;8.23;6.07;;;23.50;59.00;;;;;;4933608;29;20067;-49
2023/07/09 03:39:26;;;;;;;6.40;5.72;;;23.50;59.10;;;;;;4938941;29;20134;-48
2023/07/09 03:41:55;;;;;;;7.38;5.18;;;23.50;59.10;;;;;;4933928;29;20043;-47
2023/07/09 03:44:22;;;;;;;7.32;5.72;;;23.40;59.30;;;;;;4949996;28;20071;-49
2023/07/09 03:46:51;;;;;;;6.13;5.53;;;23.40;59.10;;;;;;4951503;28;20062;-50
2023/07/09 03:49:18;;;;;;;7.30;5.60;;;23.40;59.40;;;;;;4946283;29;20094;-48
2023/07/09 03:51:45;;;;;;;8.00;5.65;;;23.40;59.30;;;;;;4951206;29;20032;-51
2023/07/09 03:54:14;;;;;;;7.20;6.25;;;23.40;59.40;;;;;;4931351;29;20131;-46
2023/07/09 03:56:41;;;;;;;6.72;6.03;;;23.40;59.60;;;;;;4951248;29;20501;-50
2023/07/09 03:59:10;;;;;;;6.85;6.15;;;23.40;59.60;;;;;;4950206;29;20118;-47
2023/07/09 04:01:37;;;;;;;7.70;6.32;;;23.40;59.70;;;;;;4951353;28;20039;-51
2023/07/09 04:04:04;;;;;;;6.40;5.80;;;23.40;59.80;;;;;;4937480;28;20499;-50
2023/07/09 04:06:30;;;;;;;8.73;5.93;;;23.40;60.00;;;;;;4932816;29;20127;-49
2023/07/09 04:08:59;;;;;;;7.97;6.32;;;23.40;60.10;;;;;;4932341;28;20120;-50
2023/07/09 04:11:28;;;;;;;6.93;5.70;;;23.40;60.30;;;;;;4934305;28;20126;-46
2023/07/09 04:14:01;;;;;;;7.90;5.78;;;23.40;60.70;;;;;;4932116;29;20497;-47
2023/07/09 04:16:28;;;;;;;10.55;6.72;;;23.40;60.90;;;;;;4940343;29;20051;-49
2023/07/09 04:18:59;;;;;;;8.70;6.18;;;23.40;60.90;;;;;;4932205;29;20044;-50
2023/07/09 04:21:25;;;;;;;6.82;5.63;;;23.50;61.30;;;;;;4934119;29;20078;-51
2023/07/09 04:23:52;;;;;;;8.60;6.32;;;23.50;61.20;;;;;;4934977;29;20512;-50
2023/07/09 04:26:19;;;;;;;6.63;5.93;;;23.60;61.40;;;;;;4938933;29;20738;-51
2023/07/09 04:28:48;;;;;;;10.18;6.50;;;23.60;61.40;;;;;;4932165;29;20043;-49
2023/07/09 04:31:19;;;;;;;6.97;5.65;;;23.60;61.40;;;;;;4933637;29;20046;-51
2023/07/09 04:33:46;;;;;;;6.70;5.60;;;23.70;61.50;;;;;;4931912;29;20044;-50
2023/07/09 04:36:15;;;;;;;7.53;6.45;;;23.70;61.50;;;;;;4932617;29;20044;-50
2023/07/09 04:38:42;;;;;;;9.88;6.68;;;23.80;61.70;;;;;;4932496;29;20091;-45
2023/07/09 04:41:09;;;;;;;7.40;6.40;;;23.80;61.50;;;;;;4931731;29;20036;-46
2023/07/09 04:43:36;;;;;;;7.03;6.28;;;23.80;61.60;;;;;;4931084;29;20066;-46
2023/07/09 04:46:02;;;;;;;7.53;6.18;;;23.90;61.70;;;;;;4934750;29;20065;-50
2023/07/09 04:48:29;;;;;;;7.90;6.35;;;24.00;61.60;;;;;;4932726;29;20118;-49
2023/07/09 04:50:56;;;;;;;11.18;6.78;;;24.00;61.60;;;;;;4932296;29;20044;-48
2023/07/09 04:53:26;;;;;;;14.23;6.85;;;24.10;61.60;;;;;;4932957;29;20103;-47
2023/07/09 04:55:55;;;;;;;9.55;6.72;;;24.20;61.10;;;;;;4932378;29;20494;-46
2023/07/09 04:58:25;;;;;;;7.53;6.60;;;24.20;61.10;;;;;;4933910;28;20040;-48
2023/07/09 05:00:58;;;;;;;8.07;6.35;;;24.30;61.20;;;;;;4936285;29;20050;-48
2023/07/09 05:03:27;;;;;;;6.40;5.78;;;24.30;61.80;;;;;;4917610;29;20042;-50
2023/07/09 05:05:54;;;;;;;8.70;6.13;;;24.40;61.90;;;;;;4935119;29;20075;-47
2023/07/09 05:08:22;;;;;;;9.73;6.38;;;24.40;61.30;;;;;;4934627;29;20118;-49
2023/07/09 05:10:52;;;;;;;9.23;6.30;;;24.50;61.50;;;;;;4920393;29;20500;-46
2023/07/09 05:13:20;;;;;;;9.48;6.55;;;24.50;62.70;;;;;;4934249;29;20534;-48
2023/07/09 05:15:50;;;;;;;7.03;5.88;;;24.60;61.50;;;;;;4935415;29;20071;-51
2023/07/09 05:18:19;;;;;;;9.23;6.25;;;24.70;61.90;;;;;;4935164;29;20038;-47
2023/07/09 05:20:48;;;;;;;7.80;6.00;;;24.70;61.40;;;;;;4938068;29;20076;-48
2023/07/09 05:23:15;;;;;;;11.43;6.10;;;24.80;61.50;;;;;;4936952;29;20063;-48
2023/07/09 05:25:49;;;;;;;8.27;5.95;;;24.80;61.40;;;;;;4941560;29;20040;-51
2023/07/09 05:28:18;;;;;;;8.45;6.18;;;24.90;61.50;;;;;;4935295;29;20070;-50
2023/07/09 05:30:46;;;;;;;8.98;6.20;;;24.90;61.90;;;;;;4935841;29;20138;-47
2023/07/09 05:33:13;;;;;;;7.93;6.15;;;25.00;61.00;;;;;;4935676;29;20047;-49
2023/07/09 05:35:47;;;;;;;8.82;5.63;;;25.00;61.60;;;;;;4934401;29;20114;-50
2023/07/09 05:38:15;;;;;;;8.23;6.45;;;25.10;62.40;;;;;;4917151;29;20070;-51
2023/07/09 05:40:46;;;;;;;7.38;6.38;;;25.10;61.00;;;;;;4936798;29;20074;-51
2023/07/09 05:43:17;;;;;;;8.73;5.63;;;25.10;61.30;;;;;;4933973;29;20127;-51
2023/07/09 05:45:46;;;;;;;8.15;5.88;;;25.20;61.10;;;;;;4934002;29;20047;-52
2023/07/09 05:48:15;;;;;;;7.82;6.07;;;25.30;61.30;;;;;;4937137;29;20064;-50
2023/07/09 05:50:44;;;;;;;10.93;6.40;;;25.30;61.40;;;;;;4934622;29;20126;-53
2023/07/09 05:53:11;;;;;;;9.15;6.57;;;25.40;60.80;;;;;;4918713;29;20416;-50
2023/07/09 05:55:41;;;;;;;6.85;6.15;;;25.40;60.30;;;;;;4933693;29;20031;-50
2023/07/09 05:58:11;;;;;;;8.82;6.07;;;25.50;60.30;;;;;;4933632;29;20040;-50
2023/07/09 06:00:42;;;;;;;13.05;6.47;;;25.50;60.30;;;;;;4934499;29;20132;-47
2023/07/09 06:03:11;;;;;;;12.35;6.07;;;25.60;60.70;;;;;;4937891;29;20094;-51
2023/07/09 06:05:46;;;;;;;8.93;6.85;;;25.60;60.10;;;;;;4933601;29;20047;-50
2023/07/09 06:08:13;;;;;;;7.45;6.63;;;25.70;60.00;;;;;;4933105;29;20076;-50
2023/07/09 06:11:00;;;;;;;10.73;6.97;;;25.80;60.30;;;;;;4934865;29;20039;-51
2023/07/09 06:13:32;;;;;;;12.02;6.97;;;25.80;60.60;;;;;;4940651;29;20043;-50
2023/07/09 06:16:00;;;;;;;10.18;6.82;;;25.90;60.00;;;;;;4923937;28;20139;-47
2023/07/09 06:18:30;;;;;;;8.80;5.72;;;25.90;59.70;;;;;;4940420;28;20054;-48
2023/07/09 06:20:59;;;;;;;11.23;6.75;;;26.00;59.70;;;;;;4943289;29;20047;-50
2023/07/09 06:23:27;;;;;;;10.82;5.78;;;26.10;59.60;;;;;;4938139;29;20524;-51
2023/07/09 06:25:54;;;;;;;12.32;6.60;;;26.10;59.50;;;;;;4937757;29;20044;-49
2023/07/09 06:28:24;;;;;;;8.82;5.97;;;26.20;59.30;;;;;;4932961;29;20408;-50
2023/07/09 06:30:51;;;;;;;10.35;5.93;;;26.20;59.10;;;;;;4932728;29;20453;-51
2023/07/09 06:33:19;;;;;;;10.70;6.00;;;26.30;58.90;;;;;;4943821;29;20036;-50
2023/07/09 06:35:51;;;;;;;10.15;5.97;;;26.30;58.80;;;;;;4941060;29;20043;-48
2023/07/09 06:38:19;;;;;;;10.07;5.60;;;26.40;58.80;;;;;;4935051;29;20119;-47
2023/07/09 06:40:45;;;;;;;7.82;5.45;;;26.50;58.90;;;;;;4932005;29;20068;-50
2023/07/09 06:43:15;;;;;;;12.70;7.15;;;26.60;59.10;;;;;;4938267;29;20035;-50
2023/07/09 06:45:56;;;;;;;8.98;6.60;;;26.60;58.70;;;;;;4931218;23;20046;-48
2023/07/09 06:48:24;;;;;;;13.02;6.57;;;26.70;58.70;;;;;;4930264;29;20453;-48
2023/07/09 06:50:53;;;;;;;9.23;5.88;;;26.80;58.40;;;;;;4906944;29;20130;-50
2023/07/09 06:53:21;;;;;;;11.98;5.72;;;26.80;58.40;;;;;;4921749;29;20514;-48
2023/07/09 06:55:52;;;;;;;12.95;6.13;;;26.90;58.30;;;;;;4913857;29;20517;-52
2023/07/09 06:58:20;;;;;;;9.25;6.80;;;26.90;58.20;;;;;;4913937;29;20040;-47
2023/07/09 07:00:49;;;;;;;9.30;6.43;;;27.00;58.20;;;;;;4910110;29;20060;-48
2023/07/09 07:03:18;;;;;;;13.13;7.55;;;27.00;58.20;;;;;;4902248;29;20043;-49
2023/07/09 07:05:45;;;;;;;12.13;6.57;;;27.10;57.90;;;;;;4910226;29;20131;-51
2023/07/09 07:08:15;;;;;;;11.82;6.28;;;27.20;57.80;;;;;;4914273;29;20063;-50
2023/07/09 07:10:42;;;;;;;8.57;5.35;;;27.20;57.50;;;;;;4911771;29;20091;-51
2023/07/09 07:13:10;;;;;;;12.02;7.28;;;27.30;57.60;;;;;;4915711;29;20132;-51
2023/07/09 07:15:38;;;;;;;11.50;5.75;;;27.40;57.60;;;;;;4905022;29;20099;-50
2023/07/09 07:18:06;;;;;;;7.82;6.85;;;27.50;57.40;;;;;;4907198;29;20124;-50
2023/07/09 07:20:33;;;;;;;9.48;6.43;;;27.50;57.10;;;;;;4902287;29;20099;-52
2023/07/09 07:23:00;;;;;;;8.02;6.07;;;27.50;57.00;;;;;;4910748;29;20075;-52
2023/07/09 07:25:27;;;;;;;9.73;5.93;;;27.60;57.00;;;;;;4913565;29;20127;-52
2023/07/09 07:27:54;;;;;;;11.23;6.80;;;27.70;57.70;;;;;;4907825;29;20055;-51
2023/07/09 07:30:21;;;;;;;8.85;5.80;;;27.70;56.90;;;;;;4907476;29;20047;-51
2023/07/09 07:32:51;;;;;;;7.25;5.60;;;27.80;56.90;;;;;;4912609;29;20119;-51
2023/07/09 07:35:19;;;;;;;10.23;6.45;;;27.90;56.70;;;;;;4908761;29;20059;-51
2023/07/09 07:37:46;;;;;;;8.23;5.47;;;27.90;56.50;;;;;;4907345;29;20043;-50
2023/07/09 07:40:12;;;;;;;6.93;5.93;;;28.00;56.40;;;;;;4913432;29;20410;-51
2023/07/09 07:42:39;;;;;;;7.00;5.50;;;28.10;56.40;;;;;;4913308;29;20060;-52
2023/07/09 07:45:09;;;;;;;6.20;5.55;;;28.20;56.30;;;;;;4908264;29;20119;-52
2023/07/09 07:47:39;;;;;;;7.78;5.65;;;28.20;56.00;;;;;;4904564;29;20048;-51
2023/07/09 07:50:07;;;;;;;8.10;5.97;;;28.30;56.00;;;;;;4912234;29;20036;-52
2023/07/09 07:52:37;;;;;;;8.25;5.22;;;28.40;55.70;;;;;;4901288;29;20148;-51
2023/07/09 07:55:08;;;;;;;8.10;5.60;;;28.40;55.70;;;;;;4909136;29;20055;-51
2023/07/09 07:57:37;;;;;;;5.93;5.10;;;28.50;55.50;;;;;;4908465;29;20717;-51
2023/07/09 08:00:05;;;;;;;9.98;5.82;;;28.60;55.50;;;;;;4907508;29;20123;-50
2023/07/09 08:02:38;;;;;;;6.07;5.38;;;28.70;55.90;;;;;;4905923;29;20552;-51
2023/07/09 08:05:06;;;;;;;6.88;5.60;;;28.70;55.10;;;;;;4908931;29;20040;-49
2023/07/09 08:07:32;;;;;;;9.55;5.45;;;28.80;55.40;;;;;;4912045;29;20091;-52
2023/07/09 08:09:59;;;;;;;9.57;5.72;;;28.90;55.30;;;;;;4910228;29;20136;-49
2023/07/09 08:12:25;;;;;;;6.57;5.10;;;29.00;55.20;;;;;;4909777;29;20056;-52
2023/07/09 08:14:52;;;;;;;8.65;5.47;;;29.00;55.00;;;;;;4885566;29;20555;-52
2023/07/09 08:17:19;;;;;;;7.45;5.57;;;29.10;55.00;;;;;;4911088;29;20040;-52
2023/07/09 08:19:48;;;;;;;7.45;4.88;;;29.20;54.60;;;;;;4913336;29;20076;-50
2023/07/09 08:22:15;;;;;;;8.27;5.47;;;29.20;54.30;;;;;;4910666;29;20040;-52
2023/07/09 08:24:42;;;;;;;6.22;5.63;;;29.30;53.80;;;;;;4911571;29;20076;-53
2023/07/09 08:27:11;;;;;;;10.43;5.18;;;29.40;53.40;;;;;;4895702;29;20067;-50
2023/07/09 08:29:39;;;;;;;7.43;4.80;;;29.40;53.40;;;;;;4911772;29;20131;-52
2023/07/09 08:32:07;;;;;;;5.85;5.10;;;29.50;53.30;;;;;;4912128;29;20127;-52
2023/07/09 08:34:33;;;;;;;5.72;5.13;;;29.60;53.20;;;;;;4916789;29;20044;-52
2023/07/09 08:37:01;;;;;;;7.20;4.72;;;29.60;53.20;;;;;;4898509;29;20133;-52
2023/07/09 08:39:27;;;;;;;5.78;5.15;;;29.70;53.40;;;;;;4916900;29;20059;-52
2023/07/09 08:42:07;;;;;;;8.45;5.45;;;29.80;52.90;;;;;;4916313;29;20048;-52
2023/07/09 08:45:02;;;;;;;7.35;4.55;;;29.80;52.50;;;;;;4913820;29;20734;-51
2023/07/09 08:47:57;;;;;;;7.78;5.40;;;30.00;52.40;;;;;;4915672;29;20122;-52
2023/07/09 08:50:33;;;;;;;7.72;4.65;;;30.00;52.80;;;;;;4916627;29;20513;-52
2023/07/09 08:53:01;;;;;;;5.15;4.45;;;30.10;52.00;;;;;;4913845;29;20092;-54
2023/07/09 08:55:40;;;;;;;5.78;4.72;;;30.20;51.80;;;;;;4914445;29;20044;-52
2023/07/09 08:58:22;;;;;;;5.28;4.78;;;30.20;51.80;;;;;;4916226;29;20050;-49
2023/07/09 09:00:59;;;;;;;5.95;4.20;;;30.30;51.20;;;;;;4909637;29;20044;-51
2023/07/09 09:03:41;;;;;;;7.97;5.07;;;30.40;50.80;;;;;;4911273;29;20505;-50
2023/07/09 09:06:35;;;;;;;5.32;4.57;;;30.40;50.10;;;;;;4916013;29;20114;-49
2023/07/09 09:09:20;;;;;;;5.25;3.90;;;30.60;50.30;;;;;;4909665;29;20078;-52
2023/07/09 09:12:19;;;;;;;5.68;4.13;;;30.60;50.30;;;;;;4906352;29;20055;-53
2023/07/09 09:14:58;;;;;;;5.97;4.38;;;30.70;50.30;;;;;;4892377;29;20655;-50
2023/07/09 09:17:28;;;;;;;4.60;4.22;;;30.80;48.70;;;;;;4914899;29;20507;-52
2023/07/09 09:19:59;;;;;;;6.78;4.63;;;30.80;50.10;;;;;;4915949;29;20048;-52
2023/07/09 09:22:32;;;;;;;5.10;4.35;;;30.90;49.40;;;;;;4909370;29;20048;-49
2023/07/09 09:25:27;;;;;;;5.90;4.57;;;31.00;48.70;;;;;;4914524;29;20099;-51
2023/07/09 09:27:54;;;;;;;6.88;4.25;;;31.00;48.90;;;;;;4910679;29;20046;-52
2023/07/09 09:30:24;;;;;;;6.07;4.10;;;31.10;49.00;;;;;;4912979;29;20040;-54
2023/07/09 09:33:01;;;;;;;6.15;4.15;;;31.20;48.40;;;;;;4907835;29;20050;-52
2023/07/09 09:35:31;;;;;;;4.68;4.05;;;31.20;48.20;;;;;;4907553;29;20421;-51
2023/07/09 09:37:59;;;;;;;7.13;4.55;;;31.30;48.70;;;;;;4915256;29;20042;-52
2023/07/09 09:40:29;;;;;;;7.38;3.92;;;31.30;48.80;;;;;;4909978;29;20119;-52
2023/07/09 09:42:59;;;;;;;7.80;4.60;;;31.40;48.10;;;;;;4914917;29;20737;-52
2023/07/09 09:45:34;;;;;;;4.55;4.15;;;31.50;48.10;;;;;;4909529;29;20132;-51
2023/07/09 09:48:18;;;;;;;7.28;5.00;;;31.60;47.90;;;;;;4912223;29;20050;-53
2023/07/09 09:50:47;;;;;;;7.15;4.03;;;31.60;47.70;;;;;;4908141;29;20123;-53
2023/07/09 09:53:24;;;;;;;6.55;4.40;;;31.70;47.70;;;;;;4909827;29;20128;-56
2023/07/09 09:55:53;;;;;;;5.13;3.50;;;31.80;46.80;;;;;;4911031;29;20044;-52
2023/07/09 09:58:20;;;;;;;8.43;4.47;;;31.90;46.70;;;;;;4915229;29;20119;-49
2023/07/09 10:00:50;;;;;;;6.55;3.70;;;31.90;47.10;;;;;;4910547;29;20220;-54
2023/07/09 10:03:18;;;;;;;4.78;4.38;;;32.00;47.60;;;;;;4915292;29;20671;-48
2023/07/09 10:05:56;;;;;;;8.27;4.20;;;32.00;47.40;;;;;;4914392;29;20553;-52
2023/07/09 10:08:57;;;;;;;5.07;4.15;;;32.10;46.90;;;;;;4898269;29;20504;-52
2023/07/09 10:11:43;;;;;;;4.63;3.75;;;32.20;45.60;;;;;;4913970;29;20481;-53
2023/07/09 10:14:42;;;;;;;3.95;3.15;;;32.30;45.80;;;;;;4915012;29;20154;-52
2023/07/09 10:17:16;;;;;;;6.40;4.82;;;32.40;45.20;;;;;;4911521;29;20063;-51
2023/07/09 10:20:24;;;;;;;4.32;3.92;;;32.50;45.80;;;;;;4900405;29;20100;-53
2023/07/09 10:23:09;;;;;;;5.30;3.75;;;32.60;45.80;;;;;;4870549;29;20130;-52
2023/07/09 10:25:48;;;;;;;6.03;3.33;;;32.60;44.80;;;;;;4913904;29;20127;-53
2023/07/09 10:28:45;;;;;;;4.35;3.58;;;32.70;44.70;;;;;;4915016;29;20565;-48
2023/07/09 10:31:33;;;;;;;4.25;3.90;;;32.80;44.90;;;;;;4910878;29;20052;-54
2023/07/09 10:34:05;;;;;;;4.22;3.67;;;32.80;43.90;;;;;;4912460;29;20464;-53
2023/07/09 10:36:49;;;;;;;7.30;4.40;;;32.90;43.90;;;;;;4913639;29;20090;-52
2023/07/09 10:39:24;;;;;;;6.25;4.28;;;33.00;44.70;;;;;;4914921;29;20050;-53
2023/07/09 10:41:55;;;;;;;4.70;3.88;;;33.10;43.60;;;;;;4911184;29;20044;-53
2023/07/09 10:44:30;;;;;;;6.45;3.95;;;33.20;44.40;;;;;;4895776;29;20048;-52
2023/07/09 10:47:02;;;;;;;6.35;3.75;;;33.30;43.60;;;;;;4914083;29;20115;-52
2023/07/09 10:49:36;;;;;;;3.90;3.50;;;33.50;43.40;;;;;;4911985;29;20513;-53
2023/07/09 10:52:25;;;;;;;4.72;3.75;;;33.60;43.50;;;;;;4913841;29;20731;-51
2023/07/09 10:55:16;;;;;;;5.97;4.05;;;33.70;42.60;;;;;;4905826;29;20062;-52
2023/07/09 10:57:58;;;;;;;4.30;3.78;;;33.90;42.50;;;;;;4898071;29;20063;-52
2023/07/09 11:00:35;;;;;;;4.15;3.85;;;34.00;42.40;;;;;;4910198;29;20040;-49
2023/07/09 11:03:33;;;;;;;4.57;3.58;;;34.10;42.10;;;;;;4910330;29;20040;-52
2023/07/09 11:06:01;;;;;;;4.68;3.40;;;34.30;40.80;;;;;;4904474;29;20064;-52
2023/07/09 11:08:36;;;;;;;4.25;3.85;;;34.40;39.90;;;;;;4914233;29;20465;-51
2023/07/09 11:11:07;;;;;;;5.55;3.92;;;34.50;39.90;;;;;;4889757;29;20662;-53
2023/07/09 11:13:40;;;;;;;3.25;2.95;;;34.60;40.40;;;;;;4912089;29;20052;-52
2023/07/09 11:16:29;;;;;;;3.95;3.20;;;34.70;40.20;;;;;;4913016;29;20035;-53
2023/07/09 11:19:00;;;;;;;5.63;3.85;;;34.80;39.20;;;;;;4910233;29;20091;-52
2023/07/09 11:21:26;;;;;;;4.57;2.88;;;35.00;39.40;;;;;;4906065;29;20052;-53
2023/07/09 11:23:57;;;;;;;3.88;3.25;;;35.10;40.20;;;;;;4904817;29;20044;-53
2023/07/09 11:26:28;;;;;;;4.13;3.17;;;35.20;39.50;;;;;;4914472;29;20054;-52
2023/07/09 11:29:16;;;;;;;4.80;3.72;;;35.30;40.60;;;;;;4897303;29;20469;-53
2023/07/09 11:31:47;;;;;;;3.75;3.35;;;35.40;39.60;;;;;;4903978;29;20087;-53
2023/07/09 11:34:14;;;;;;;3.90;3.50;;;35.50;39.90;;;;;;4910224;29;20055;-51
2023/07/09 11:37:01;;;;;;;3.85;3.30;;;35.60;39.30;;;;;;4901100;29;20075;-50
2023/07/09 11:39:38;;;;;;;3.90;3.25;;;35.80;39.10;;;;;;4913116;29;20549;-50
2023/07/09 11:42:34;;;;;;;3.95;3.65;;;36.00;39.50;;;;;;4910419;29;20383;-52
2023/07/09 11:45:13;;;;;;;3.60;3.20;;;36.20;39.90;;;;;;4903855;29;20040;-53
2023/07/09 11:47:53;;;;;;;4.57;3.58;;;36.40;37.70;;;;;;4909097;29;20048;-50
2023/07/09 11:50:24;;;;;;;4.53;3.55;;;36.50;37.50;;;;;;4911676;29;20087;-53
2023/07/09 11:53:11;;;;;;;6.90;3.60;;;36.60;37.10;;;;;;4909039;29;20131;-53
2023/07/09 11:55:43;;;;;;;4.40;3.22;;;36.80;37.40;;;;;;4910595;29;20075;-53
2023/07/09 11:58:18;;;;;;;3.58;2.95;;;36.90;37.70;;;;;;4912870;29;20123;-53
2023/07/09 12:01:01;;;;;;;5.65;3.83;;;37.10;37.20;;;;;;4905572;29;20032;-50
2023/07/09 12:03:32;;;;;;;6.82;3.95;;;37.30;36.40;;;;;;4912513;29;20071;-50
2023/07/09 12:06:06;;;;;;;3.58;3.28;;;37.30;36.20;;;;;;4908970;29;20543;-49
2023/07/09 12:08:36;;;;;;;3.90;3.50;;;37.40;36.40;;;;;;4917065;29;20564;-53
2023/07/09 12:11:05;;;;;;;5.65;3.63;;;37.50;36.90;;;;;;4917354;29;20072;-52
2023/07/09 12:13:39;;;;;;;5.45;3.63;;;37.60;36.30;;;;;;4914276;29;20832;-52
2023/07/09 12:16:24;;;;;;;3.63;2.90;;;37.60;36.60;;;;;;4912915;29;20384;-52
2023/07/09 12:18:51;;;;;;;3.22;2.90;;;37.70;36.40;;;;;;4910505;29;20067;-51
2023/07/09 12:21:19;;;;;;;4.40;3.33;;;37.70;35.40;;;;;;4910669;29;20040;-53
2023/07/09 12:23:52;;;;;;;4.05;3.13;;;37.80;34.50;;;;;;4909408;29;20037;-53
2023/07/09 12:26:23;;;;;;;3.40;3.10;;;37.80;34.50;;;;;;4916836;29;20100;-51
2023/07/09 12:28:54;;;;;;;3.60;3.30;;;37.80;35.10;;;;;;4914230;29;20501;-53
2023/07/09 12:31:30;;;;;;;4.40;3.25;;;37.80;34.50;;;;;;4914373;29;20044;-50
2023/07/09 12:33:59;;;;;;;3.35;2.97;;;37.90;34.50;;;;;;4917081;29;20084;-51
2023/07/09 12:36:27;;;;;;;3.78;3.45;;;37.90;34.60;;;;;;4915440;29;20051;-51
2023/07/09 12:39:04;;;;;;;5.03;3.78;;;38.00;33.90;;;;;;4911514;29;20067;-51
2023/07/09 12:41:41;;;;;;;4.97;3.08;;;38.00;34.10;;;;;;4917178;29;20547;-51
2023/07/09 12:44:19;;;;;;;4.70;3.60;;;38.00;33.50;;;;;;4916797;29;20044;-53
2023/07/09 12:46:52;;;;;;;6.40;3.90;;;38.00;33.90;;;;;;4907328;29;20095;-54
2023/07/09 12:49:28;;;;;;;4.18;3.78;;;38.00;34.30;;;;;;4916662;29;20040;-52
2023/07/09 12:52:08;;;;;;;3.38;3.03;;;38.00;33.80;;;;;;4915326;29;20047;-53
2023/07/09 12:55:02;;;;;;;5.18;3.47;;;37.90;33.80;;;;;;4910852;29;20100;-53
2023/07/09 12:57:38;;;;;;;4.65;3.47;;;37.80;34.50;;;;;;4916684;29;20111;-53
2023/07/09 13:00:17;;;;;;;4.28;3.67;;;37.70;34.90;;;;;;4916377;29;20032;-52
2023/07/09 13:02:54;;;;;;;4.60;3.42;;;37.50;35.00;;;;;;4914322;29;20450;-52
2023/07/09 13:05:29;;;;;;;3.67;3.20;;;37.40;34.40;;;;;;4913589;29;20069;-53
2023/07/09 13:08:01;;;;;;;4.18;3.35;;;37.10;34.40;;;;;;4916913;29;20071;-52
2023/07/09 13:10:30;;;;;;;5.53;3.55;;;37.00;35.10;;;;;;4915759;29;20044;-49
2023/07/09 13:13:04;;;;;;;5.18;3.50;;;36.80;35.20;;;;;;4912282;29;20138;-52